Accueil
METAR-TAF:

METAR-TAF

Aéroports :

Aéroport international de Douchanbé

Douchanbé, Tadjikistan

latitude: 38-33N, longitude: 068-47E, altitude: 803 m

Observation

Le bulletin a été fait il y a 11 minutes, à 23:00 UTC
Vent 2 kt de sud-est
Température 23°C
Humidité 44%
Pression 1009 hPa
Visibilité 10 km ou plus

METAR: UTDD 162300Z 13001MPS 9999 NSC 23/10 Q1009 R09/CLRD// NOSIG RMK QFE689/0918

Heure: 04:11 (23:11 UTC)

Prévision

Le bulletin a été fait il y a 2 heures et 11 minutes, à 21:00 UTC
Prévision valable du 16 à 22 UTC au 17 à 10 UTC
Vent 4 kt de direction variable
Visibilité: 6000 m
Quelques nuages à une hauteur de 6600 ft, Cumulonimbus.
Nuages épars à une hauteur de 12000 ft
Temporairement
du 17 à 07 UTC au 17 à 10 UTC
Vent 12 kt de ouest

TAF: UTDD 162100Z 1622/1710 VRB02MPS 6000 FEW066CB SCT120 TEMPO 1707/1710 27006MPS

Observations et prévisions météorologiques de plus de 4000 aéroports (messages METAR et TAF).

Les stations disponibles sont représentées par des disques jaunes et rouges sur la carte.

Passer la souris dessus pour voir le nom de la station.

Cliquer dessus pour voir les observations et prévisions météorologiques.

Pour changer de carte: cliquez sur les boutons verts avec une croix noire pour zoomer, sur le bouton vert avec un tiret pour effectuer un zoom arrière, ou sur les flèches vertes pour les cartes adjacentes.


METAR-TAF: